createdAt,value
2023-04-30T00:00:08.564Z,72.17
2023-04-30T00:02:35.493Z,72.27
2023-04-30T00:05:02.281Z,72.52
2023-04-30T00:07:28.814Z,72.88
2023-04-30T00:09:55.612Z,72.63
2023-04-30T00:12:22.309Z,72.78
2023-04-30T00:14:49.427Z,72.77
2023-04-30T00:17:16.143Z,72.31
2023-04-30T00:19:42.740Z,72.65
2023-04-30T00:22:09.215Z,72.81
2023-04-30T00:24:35.854Z,73.15
2023-04-30T00:27:02.316Z,73.54
2023-04-30T00:29:28.772Z,73.29
2023-04-30T00:31:55.362Z,73.73
2023-04-30T00:34:21.885Z,74.01
2023-04-30T00:36:48.395Z,74.11
2023-04-30T00:39:15.199Z,74.10
2023-04-30T00:41:41.725Z,74.34
2023-04-30T00:44:08.181Z,74.18
2023-04-30T00:46:34.727Z,74.42
2023-04-30T00:49:04.827Z,74.67
2023-04-30T00:51:34.325Z,74.72
2023-04-30T00:54:01.262Z,74.46
2023-04-30T00:56:27.718Z,74.71
2023-04-30T00:58:57.383Z,73.69
2023-04-30T01:01:30.752Z,74.02
2023-04-30T01:03:57.350Z,74.12
2023-04-30T01:06:24.130Z,73.90
2023-04-30T01:08:50.701Z,73.68
2023-04-30T01:11:26.560Z,73.20
2023-04-30T01:14:04.493Z,73.42
2023-04-30T01:16:33.617Z,73.38
2023-04-30T01:19:36.570Z,73.29
2023-04-30T01:22:04.184Z,72.86
2023-04-30T01:24:47.087Z,72.83
2023-04-30T01:27:45.660Z,72.70
2023-04-30T01:30:12.105Z,72.41
2023-04-30T01:32:38.652Z,72.14
2023-04-30T01:35:05.330Z,71.72
2023-04-30T01:37:45.801Z,71.30
2023-04-30T01:40:25.197Z,71.09
2023-04-30T01:43:03.936Z,70.93
2023-04-30T01:45:32.988Z,70.75
2023-04-30T01:48:13.520Z,70.46
2023-04-30T01:50:55.713Z,70.49
2023-04-30T01:53:24.811Z,70.68
2023-04-30T01:55:55.835Z,70.40
2023-04-30T01:58:22.819Z,70.54
2023-04-30T02:00:49.305Z,70.54
2023-04-30T02:03:15.843Z,70.08
2023-04-30T02:05:42.384Z,70.20
2023-04-30T02:08:08.871Z,70.39
2023-04-30T02:10:35.317Z,69.88
2023-04-30T02:13:01.787Z,70.06
2023-04-30T02:15:28.270Z,69.88
2023-04-30T02:17:54.783Z,69.44
2023-04-30T02:20:21.327Z,69.82
2023-04-30T02:22:47.969Z,69.59
2023-04-30T02:25:14.490Z,69.25
2023-04-30T02:27:41.003Z,69.30
2023-04-30T02:30:08.082Z,69.06
2023-04-30T02:32:34.671Z,68.89
2023-04-30T02:35:01.586Z,69.06
2023-04-30T02:37:28.040Z,68.74
2023-04-30T02:39:54.761Z,69.02
2023-04-30T02:42:21.625Z,68.79
2023-04-30T02:44:48.127Z,69.10
2023-04-30T02:47:15.081Z,69.33
2023-04-30T02:49:41.601Z,69.42
2023-04-30T02:52:09.535Z,69.58
2023-04-30T02:54:36.483Z,69.08
2023-04-30T02:57:03.303Z,69.10
2023-04-30T02:59:29.774Z,68.93
2023-04-30T03:01:56.282Z,69.43
2023-04-30T03:04:22.738Z,69.37
2023-04-30T03:06:49.196Z,69.42
2023-04-30T03:09:15.766Z,69.25
2023-04-30T03:11:42.257Z,68.80
2023-04-30T03:14:08.806Z,69.43
2023-04-30T03:16:35.391Z,69.27
2023-04-30T03:19:01.878Z,69.19
2023-04-30T03:21:28.657Z,68.74
2023-04-30T03:23:55.109Z,68.76
2023-04-30T03:26:22.104Z,69.00
2023-04-30T03:28:49.344Z,68.95
2023-04-30T03:31:15.947Z,69.15
2023-04-30T03:33:42.477Z,69.23
2023-04-30T03:36:08.950Z,69.36
2023-04-30T03:38:35.431Z,69.23
2023-04-30T03:41:01.898Z,69.39
2023-04-30T03:43:28.768Z,68.67
2023-04-30T03:45:55.339Z,68.81
2023-04-30T03:48:21.842Z,68.45
2023-04-30T03:50:48.367Z,68.88
2023-04-30T03:53:14.839Z,68.40
2023-04-30T03:55:41.515Z,68.54
2023-04-30T03:58:08.271Z,68.80
2023-04-30T04:00:34.817Z,68.69
2023-04-30T04:03:01.377Z,68.87
2023-04-30T04:05:27.954Z,68.56
2023-04-30T04:07:54.410Z,68.52
2023-04-30T04:10:21.054Z,68.61
2023-04-30T04:12:47.561Z,68.14
2023-04-30T04:15:14.079Z,68.42
2023-04-30T04:17:40.632Z,68.23
2023-04-30T04:20:08.240Z,68.21
2023-04-30T04:22:34.694Z,68.07
2023-04-30T04:25:01.428Z,68.53
2023-04-30T04:27:27.899Z,68.59
2023-04-30T04:29:55.076Z,68.77
2023-04-30T04:32:22.786Z,68.68
2023-04-30T04:34:49.593Z,68.93
2023-04-30T04:37:17.481Z,68.46
2023-04-30T04:39:45.094Z,67.84
2023-04-30T04:42:12.019Z,67.92
2023-04-30T04:44:38.577Z,68.21
2023-04-30T04:47:05.275Z,68.28
2023-04-30T04:49:31.776Z,68.25
2023-04-30T04:51:58.382Z,68.85
2023-04-30T04:54:24.921Z,68.83
2023-04-30T04:56:51.736Z,68.75
2023-04-30T04:59:18.845Z,68.95
2023-04-30T05:01:45.380Z,68.87
2023-04-30T05:04:13.778Z,68.81
2023-04-30T05:06:41.384Z,68.89
2023-04-30T05:09:09.502Z,68.44
2023-04-30T05:11:36.293Z,68.49
2023-04-30T05:14:02.885Z,68.41
2023-04-30T05:16:29.422Z,67.82
2023-04-30T05:18:55.948Z,67.80
2023-04-30T05:21:23.004Z,67.88
2023-04-30T05:23:49.573Z,67.44
2023-04-30T05:26:16.420Z,67.71
2023-04-30T05:28:42.887Z,67.57
2023-04-30T05:31:09.400Z,67.41
2023-04-30T05:33:37.150Z,67.12
2023-04-30T05:36:03.814Z,66.83
2023-04-30T05:38:30.479Z,66.31
2023-04-30T05:40:56.988Z,65.98
2023-04-30T05:43:23.505Z,65.52
2023-04-30T05:45:50.031Z,65.83
2023-04-30T05:48:16.653Z,65.62
2023-04-30T05:50:43.523Z,65.41
2023-04-30T05:53:10.254Z,64.90
2023-04-30T05:55:36.806Z,64.06
2023-04-30T05:58:03.314Z,64.54
2023-04-30T06:00:29.825Z,64.82
2023-04-30T06:02:56.318Z,65.29
2023-04-30T06:05:22.952Z,64.69
2023-04-30T06:07:49.484Z,64.05
2023-04-30T06:10:15.993Z,64.49
2023-04-30T06:12:42.451Z,64.08
2023-04-30T06:15:09.127Z,63.83
2023-04-30T06:17:35.640Z,64.59
2023-04-30T06:20:06.839Z,63.32
2023-04-30T06:22:33.929Z,63.94
2023-04-30T06:25:00.969Z,63.08
2023-04-30T06:27:32.280Z,63.38
2023-04-30T06:30:00.807Z,63.25
2023-04-30T06:32:27.434Z,63.20
2023-04-30T06:34:53.933Z,61.94
2023-04-30T06:37:20.543Z,61.88
2023-04-30T06:39:47.247Z,61.88
2023-04-30T06:42:13.757Z,60.49
2023-04-30T06:44:40.222Z,59.47
2023-04-30T06:47:06.682Z,59.17
2023-04-30T06:49:33.336Z,58.17
2023-04-30T06:51:59.865Z,58.25
2023-04-30T06:54:29.206Z,57.44
2023-04-30T06:56:55.693Z,56.49
2023-04-30T06:59:22.175Z,56.03
2023-04-30T07:01:48.680Z,56.07
2023-04-30T07:04:15.586Z,55.28
2023-04-30T07:06:42.464Z,54.90
2023-04-30T07:09:09.130Z,54.99
2023-04-30T07:11:35.623Z,55.54
2023-04-30T07:14:02.133Z,55.32
2023-04-30T07:16:28.735Z,55.51
2023-04-30T07:18:55.317Z,54.65
2023-04-30T07:21:21.967Z,55.48
2023-04-30T07:23:51.423Z,55.37
2023-04-30T07:26:18.290Z,55.29
2023-04-30T07:28:47.651Z,56.22
2023-04-30T07:31:14.161Z,56.04
2023-04-30T07:33:40.954Z,55.90
2023-04-30T07:36:07.483Z,55.86
2023-04-30T07:38:34.053Z,56.33
2023-04-30T07:41:01.731Z,55.94
2023-04-30T07:43:29.981Z,56.53
2023-04-30T07:45:57.760Z,56.00
2023-04-30T07:48:24.250Z,56.07
2023-04-30T07:50:52.160Z,55.43
2023-04-30T07:53:19.649Z,54.00
2023-04-30T07:55:46.426Z,54.20
2023-04-30T07:58:12.938Z,53.04
2023-04-30T08:00:39.441Z,52.66
2023-04-30T08:03:06.000Z,53.03
2023-04-30T08:05:32.508Z,51.70
2023-04-30T08:07:58.998Z,52.10
2023-04-30T08:10:26.253Z,51.40
2023-04-30T08:12:53.080Z,51.52
2023-04-30T08:15:21.837Z,52.33
2023-04-30T08:17:51.623Z,49.72
2023-04-30T08:20:18.305Z,48.61
2023-04-30T08:22:45.101Z,49.29
2023-04-30T08:25:12.511Z,48.64
2023-04-30T08:27:39.345Z,48.91
2023-04-30T08:30:07.346Z,48.62
2023-04-30T08:32:37.065Z,48.03
2023-04-30T08:35:07.149Z,48.40
2023-04-30T08:37:33.727Z,49.33
2023-04-30T08:40:00.276Z,48.02
2023-04-30T08:42:30.743Z,47.94
2023-04-30T08:44:58.965Z,48.64
2023-04-30T08:47:25.798Z,49.03
2023-04-30T08:49:52.616Z,48.66
2023-04-30T08:52:19.530Z,49.66
2023-04-30T08:54:46.158Z,51.35
2023-04-30T08:57:12.623Z,50.88
2023-04-30T08:59:39.098Z,51.23
2023-04-30T09:02:06.075Z,50.57
2023-04-30T09:04:32.646Z,51.00
2023-04-30T09:06:59.466Z,50.01
2023-04-30T09:09:30.116Z,50.54
2023-04-30T09:12:12.963Z,49.53
2023-04-30T09:14:40.298Z,50.13
2023-04-30T09:17:07.221Z,50.40
2023-04-30T09:19:33.692Z,50.19
2023-04-30T09:22:00.758Z,49.58
2023-04-30T09:24:27.223Z,48.95
2023-04-30T09:26:53.788Z,47.11
2023-04-30T09:29:20.368Z,47.61
2023-04-30T09:31:47.129Z,47.66
2023-04-30T09:34:14.000Z,47.75
2023-04-30T09:36:56.002Z,47.63
2023-04-30T09:39:22.567Z,46.15
2023-04-30T09:41:50.607Z,47.31
2023-04-30T09:44:32.113Z,45.45
2023-04-30T09:46:59.176Z,45.63
2023-04-30T09:49:27.143Z,45.93
2023-04-30T09:52:00.967Z,46.21
2023-04-30T09:54:30.000Z,46.93
2023-04-30T09:57:01.506Z,47.42
2023-04-30T09:59:32.517Z,47.09
2023-04-30T10:02:00.639Z,48.12
2023-04-30T10:04:40.020Z,48.12
2023-04-30T10:07:16.316Z,49.35
2023-04-30T10:10:05.185Z,48.95
2023-04-30T10:12:56.417Z,50.29
2023-04-30T10:15:28.457Z,49.51
2023-04-30T10:17:58.658Z,50.37
2023-04-30T10:20:25.390Z,51.79
2023-04-30T10:22:52.511Z,52.45
2023-04-30T10:25:19.437Z,51.70
2023-04-30T10:27:46.432Z,52.39
2023-04-30T10:30:13.326Z,52.37
2023-04-30T10:33:16.281Z,52.61
2023-04-30T10:36:04.307Z,52.85
2023-04-30T10:38:32.399Z,52.57
2023-04-30T10:40:59.534Z,52.79
2023-04-30T10:43:26.054Z,52.12
2023-04-30T10:45:52.670Z,52.62
2023-04-30T10:48:24.792Z,52.46
2023-04-30T10:51:00.692Z,52.74
2023-04-30T10:53:31.293Z,51.38
2023-04-30T10:56:00.478Z,51.49
2023-04-30T10:58:27.787Z,51.16
2023-04-30T11:01:01.827Z,51.74
2023-04-30T11:03:29.119Z,51.73
2023-04-30T11:05:55.761Z,51.09
2023-04-30T11:08:38.165Z,51.41
2023-04-30T11:11:05.284Z,52.49
2023-04-30T11:13:42.046Z,52.81
2023-04-30T11:16:08.650Z,51.32
2023-04-30T11:18:35.188Z,51.05
2023-04-30T11:21:01.868Z,51.18
2023-04-30T11:23:40.132Z,51.17
2023-04-30T11:26:08.590Z,51.50
2023-04-30T11:28:36.798Z,51.54
2023-04-30T11:31:03.984Z,51.77
2023-04-30T11:33:31.597Z,52.32
2023-04-30T11:35:58.786Z,50.81
2023-04-30T11:38:35.162Z,50.96
2023-04-30T11:41:02.392Z,51.50
2023-04-30T11:43:33.489Z,50.79
2023-04-30T11:46:13.336Z,51.78
2023-04-30T11:48:49.258Z,51.45
2023-04-30T11:51:20.401Z,51.67
2023-04-30T11:53:47.615Z,51.11
2023-04-30T11:56:14.100Z,51.64
2023-04-30T11:58:40.996Z,51.12
2023-04-30T12:01:09.411Z,51.40
2023-04-30T12:03:43.730Z,51.56
2023-04-30T12:06:11.924Z,50.06
2023-04-30T12:08:38.957Z,50.65
2023-04-30T12:11:07.788Z,49.43
2023-04-30T12:13:34.419Z,50.28
2023-04-30T12:16:01.275Z,50.32
2023-04-30T12:18:27.809Z,50.03
2023-04-30T12:20:54.676Z,51.10
2023-04-30T12:23:21.411Z,50.23
2023-04-30T12:25:47.895Z,50.55
2023-04-30T12:28:14.428Z,50.21
2023-04-30T12:30:40.919Z,51.66
2023-04-30T12:33:10.043Z,50.54
2023-04-30T12:35:36.640Z,51.05
2023-04-30T12:38:08.235Z,50.95
2023-04-30T12:40:34.815Z,51.73
2023-04-30T12:43:05.660Z,51.46
2023-04-30T12:45:54.528Z,52.25
2023-04-30T12:48:24.885Z,52.47
2023-04-30T12:50:55.698Z,51.10
2023-04-30T12:53:22.343Z,51.51
2023-04-30T12:56:24.538Z,52.18
2023-04-30T12:58:51.237Z,52.22
2023-04-30T13:01:21.820Z,52.47
2023-04-30T13:03:49.546Z,53.24
2023-04-30T13:06:16.332Z,53.25
2023-04-30T13:08:57.113Z,53.68
2023-04-30T13:11:26.110Z,53.97
2023-04-30T13:13:55.151Z,54.42
2023-04-30T13:16:21.698Z,54.13
2023-04-30T13:18:48.235Z,54.72
2023-04-30T13:21:14.741Z,54.51
2023-04-30T13:23:51.306Z,55.24
2023-04-30T13:26:19.816Z,54.94
2023-04-30T13:28:46.280Z,54.52
2023-04-30T13:31:12.843Z,54.92
2023-04-30T13:33:39.436Z,54.39
2023-04-30T13:36:06.110Z,54.21
2023-04-30T13:38:32.953Z,54.25
2023-04-30T13:40:59.435Z,54.33
2023-04-30T13:43:25.903Z,53.40
2023-04-30T13:45:52.371Z,52.92
2023-04-30T13:48:18.937Z,53.61
2023-04-30T13:50:45.505Z,52.29
2023-04-30T13:53:11.970Z,52.80
2023-04-30T13:55:38.465Z,52.88
2023-04-30T13:58:05.021Z,52.70
2023-04-30T14:00:31.591Z,53.68
2023-04-30T14:02:58.456Z,53.29
2023-04-30T14:05:25.103Z,53.15
2023-04-30T14:07:51.597Z,53.86
2023-04-30T14:10:18.088Z,53.57
2023-04-30T14:12:44.567Z,53.64
2023-04-30T14:15:11.226Z,53.24
2023-04-30T14:17:37.800Z,52.82
2023-04-30T14:20:04.913Z,52.18
2023-04-30T14:22:34.459Z,53.10
2023-04-30T14:25:00.981Z,52.60
2023-04-30T14:27:27.436Z,52.76
2023-04-30T14:29:54.148Z,52.58
2023-04-30T14:32:21.065Z,52.28
2023-04-30T14:34:47.684Z,53.09
2023-04-30T14:37:15.528Z,51.72
2023-04-30T14:39:42.063Z,52.30
2023-04-30T14:42:08.855Z,52.07
2023-04-30T14:44:35.638Z,52.60
2023-04-30T14:47:02.889Z,52.25
2023-04-30T14:49:29.391Z,53.20
2023-04-30T14:51:56.004Z,52.25
2023-04-30T14:54:22.685Z,52.22
2023-04-30T14:56:49.270Z,53.13
2023-04-30T14:59:15.758Z,53.20
2023-04-30T15:01:42.405Z,53.33
2023-04-30T15:04:09.473Z,53.62
2023-04-30T15:06:36.123Z,53.62
2023-04-30T15:09:02.912Z,53.74
2023-04-30T15:11:29.415Z,53.62
2023-04-30T15:13:56.153Z,54.63
2023-04-30T15:16:22.936Z,54.11
2023-04-30T15:18:49.476Z,54.47
2023-04-30T15:21:16.022Z,55.43
2023-04-30T15:23:42.512Z,55.08
2023-04-30T15:26:08.963Z,55.11
2023-04-30T15:28:35.893Z,55.38
2023-04-30T15:31:03.044Z,55.04
2023-04-30T15:33:31.170Z,54.91
2023-04-30T15:35:57.706Z,55.05
2023-04-30T15:38:24.263Z,54.51
2023-04-30T15:40:50.710Z,55.86
2023-04-30T15:43:17.869Z,55.92
2023-04-30T15:45:45.902Z,55.91
2023-04-30T15:48:12.357Z,56.28
2023-04-30T15:50:38.810Z,54.57
2023-04-30T15:53:05.301Z,54.86
2023-04-30T15:55:31.788Z,55.10
2023-04-30T15:57:58.250Z,55.72
2023-04-30T16:00:25.392Z,55.38
2023-04-30T16:02:51.918Z,55.53
2023-04-30T16:05:19.053Z,55.10
2023-04-30T16:07:45.942Z,55.75
2023-04-30T16:10:12.984Z,56.38
2023-04-30T16:12:39.490Z,56.31
2023-04-30T16:15:06.504Z,55.50
2023-04-30T16:17:32.983Z,56.12
2023-04-30T16:20:00.430Z,56.59
2023-04-30T16:22:30.253Z,55.59
2023-04-30T16:24:56.737Z,56.93
2023-04-30T16:27:23.977Z,56.04
2023-04-30T16:29:50.514Z,57.20
2023-04-30T16:32:17.024Z,56.77
2023-04-30T16:34:43.508Z,56.51
2023-04-30T16:37:10.063Z,56.98
2023-04-30T16:39:36.570Z,57.18
2023-04-30T16:42:03.091Z,57.02
2023-04-30T16:44:29.576Z,57.04
2023-04-30T16:46:59.347Z,57.77
2023-04-30T16:49:25.824Z,57.02
2023-04-30T16:51:52.382Z,57.52
2023-04-30T16:54:18.844Z,57.03
2023-04-30T16:56:45.372Z,57.04
2023-04-30T16:59:11.915Z,56.38
2023-04-30T17:01:38.528Z,57.57
2023-04-30T17:04:05.270Z,57.81
2023-04-30T17:06:33.329Z,57.60
2023-04-30T17:08:59.909Z,57.89
2023-04-30T17:11:26.838Z,58.11
2023-04-30T17:13:55.088Z,56.86
2023-04-30T17:16:22.064Z,58.52
2023-04-30T17:18:49.030Z,58.08
2023-04-30T17:21:15.890Z,57.19
2023-04-30T17:23:42.654Z,57.86
2023-04-30T17:26:09.462Z,58.32
2023-04-30T17:28:36.762Z,57.84
2023-04-30T17:31:06.719Z,57.64
2023-04-30T17:33:33.756Z,57.06
2023-04-30T17:36:00.226Z,57.37
2023-04-30T17:38:26.942Z,57.23
2023-04-30T17:40:54.194Z,56.98
2023-04-30T17:43:20.725Z,57.23
2023-04-30T17:45:47.322Z,57.60
2023-04-30T17:48:13.891Z,58.29
2023-04-30T17:50:40.427Z,57.74
2023-04-30T17:53:06.958Z,58.02
2023-04-30T17:55:33.483Z,58.29
2023-04-30T17:57:59.990Z,57.93
2023-04-30T18:00:26.760Z,58.18
2023-04-30T18:02:53.297Z,58.82
2023-04-30T18:05:19.877Z,58.12
2023-04-30T18:07:47.060Z,57.92
2023-04-30T18:10:13.559Z,57.77
2023-04-30T18:12:40.135Z,58.47
2023-04-30T18:15:08.402Z,58.89
2023-04-30T18:17:37.020Z,58.60
2023-04-30T18:20:04.391Z,58.91
2023-04-30T18:22:30.910Z,58.94
2023-04-30T18:24:57.400Z,58.52
2023-04-30T18:27:23.846Z,58.77
2023-04-30T18:29:51.533Z,58.86
2023-04-30T18:32:18.097Z,58.92
2023-04-30T18:34:44.654Z,58.88
2023-04-30T18:37:11.234Z,59.04
2023-04-30T18:39:37.708Z,58.85
2023-04-30T18:42:04.232Z,59.24
2023-04-30T18:44:33.999Z,59.44
2023-04-30T18:47:00.539Z,59.18
2023-04-30T18:49:27.031Z,59.15
2023-04-30T18:51:55.194Z,59.71
2023-04-30T18:54:22.090Z,60.11
2023-04-30T18:56:48.673Z,61.79
2023-04-30T18:59:15.595Z,61.13
2023-04-30T19:01:42.348Z,61.32
2023-04-30T19:04:15.687Z,61.17
2023-04-30T19:06:42.756Z,61.39
2023-04-30T19:09:09.460Z,61.28
2023-04-30T19:11:36.052Z,61.27
2023-04-30T19:14:02.589Z,60.53
2023-04-30T19:16:29.236Z,60.82
2023-04-30T19:18:55.855Z,60.88
2023-04-30T19:21:23.473Z,60.70
2023-04-30T19:23:49.944Z,60.93
2023-04-30T19:26:16.412Z,61.00
2023-04-30T19:28:42.895Z,60.66
2023-04-30T19:31:09.526Z,60.93
2023-04-30T19:33:39.193Z,61.96
2023-04-30T19:36:05.880Z,62.00
2023-04-30T19:38:32.351Z,63.05
2023-04-30T19:40:59.901Z,63.45
2023-04-30T19:43:26.428Z,63.43
2023-04-30T19:45:54.228Z,64.00
2023-04-30T19:48:21.578Z,63.57
2023-04-30T19:50:48.277Z,63.93
2023-04-30T19:53:16.283Z,63.71
2023-04-30T19:55:42.959Z,63.84
2023-04-30T19:58:09.425Z,64.08
2023-04-30T20:00:36.500Z,64.24
2023-04-30T20:03:05.261Z,64.72
2023-04-30T20:05:32.082Z,64.53
2023-04-30T20:07:59.437Z,65.06
2023-04-30T20:10:26.056Z,65.27
2023-04-30T20:12:55.867Z,66.23
2023-04-30T20:15:25.954Z,66.69
2023-04-30T20:17:52.805Z,67.46
2023-04-30T20:20:20.797Z,67.14
2023-04-30T20:22:50.194Z,67.70
2023-04-30T20:25:16.907Z,67.94
2023-04-30T20:27:43.724Z,68.36
2023-04-30T20:30:10.888Z,68.59
2023-04-30T20:32:38.885Z,68.86
2023-04-30T20:35:06.375Z,68.91
2023-04-30T20:37:36.226Z,69.02
2023-04-30T20:40:03.841Z,69.54
2023-04-30T20:42:30.599Z,70.11
2023-04-30T20:44:57.101Z,69.98
2023-04-30T20:47:23.882Z,70.05
2023-04-30T20:49:51.198Z,70.23
2023-04-30T20:52:18.673Z,71.47
2023-04-30T20:54:45.787Z,71.16
2023-04-30T20:57:12.386Z,71.69
2023-04-30T20:59:38.921Z,71.51
2023-04-30T21:02:05.745Z,72.07
2023-04-30T21:04:32.259Z,71.72
2023-04-30T21:06:58.793Z,72.01
2023-04-30T21:09:25.510Z,72.53
2023-04-30T21:11:52.077Z,73.14
2023-04-30T21:14:18.537Z,73.33
2023-04-30T21:16:45.120Z,73.33
2023-04-30T21:19:11.652Z,73.55
2023-04-30T21:21:38.131Z,73.54
2023-04-30T21:24:05.216Z,73.62
2023-04-30T21:26:31.795Z,74.04
2023-04-30T21:28:58.260Z,74.40
2023-04-30T21:31:24.883Z,75.44
2023-04-30T21:33:51.510Z,75.99
2023-04-30T21:36:18.097Z,76.13
2023-04-30T21:38:44.689Z,76.81
2023-04-30T21:41:15.345Z,76.90
2023-04-30T21:43:42.115Z,76.98
2023-04-30T21:46:09.695Z,77.28
2023-04-30T21:48:38.288Z,77.38
2023-04-30T21:51:17.459Z,77.16
2023-04-30T21:53:44.180Z,76.80
2023-04-30T21:56:11.095Z,76.67
2023-04-30T21:58:38.094Z,76.66
2023-04-30T22:01:05.083Z,76.92
2023-04-30T22:03:32.024Z,77.12
2023-04-30T22:05:58.753Z,77.58
2023-04-30T22:08:25.438Z,77.38
2023-04-30T22:10:58.935Z,77.42
2023-04-30T22:13:28.927Z,77.61
2023-04-30T22:15:55.687Z,77.80
2023-04-30T22:18:22.675Z,78.03
2023-04-30T22:20:49.632Z,77.86
2023-04-30T22:23:16.615Z,77.39
2023-04-30T22:25:43.164Z,77.48
2023-04-30T22:28:12.530Z,77.37
2023-04-30T22:30:40.000Z,77.19
2023-04-30T22:33:06.800Z,76.89
2023-04-30T22:35:35.690Z,76.96
2023-04-30T22:38:03.462Z,77.03
2023-04-30T22:40:33.492Z,76.72
2023-04-30T22:43:00.385Z,76.88
2023-04-30T22:45:27.643Z,76.99
2023-04-30T22:47:54.143Z,76.93
2023-04-30T22:50:20.791Z,76.89
2023-04-30T22:52:47.467Z,76.85
2023-04-30T22:55:13.933Z,76.87
2023-04-30T22:57:40.427Z,77.00
2023-04-30T23:00:08.042Z,76.74
2023-04-30T23:02:34.556Z,77.19
2023-04-30T23:05:01.180Z,77.36
2023-04-30T23:07:27.635Z,76.88
2023-04-30T23:09:54.395Z,76.90
2023-04-30T23:12:21.141Z,76.95
2023-04-30T23:14:47.654Z,76.51
2023-04-30T23:17:14.145Z,76.47
2023-04-30T23:19:40.653Z,76.68
2023-04-30T23:22:07.112Z,76.91
2023-04-30T23:24:35.804Z,77.01
2023-04-30T23:27:02.813Z,76.72
2023-04-30T23:29:29.311Z,76.36
2023-04-30T23:31:55.939Z,76.06
2023-04-30T23:34:22.418Z,76.36
2023-04-30T23:36:48.885Z,76.25
2023-04-30T23:39:15.950Z,76.15
2023-04-30T23:41:42.458Z,76.00
2023-04-30T23:44:09.028Z,75.77
2023-04-30T23:46:35.590Z,75.31
2023-04-30T23:49:02.151Z,75.57
2023-04-30T23:51:28.607Z,75.08
2023-04-30T23:53:55.082Z,74.82
2023-04-30T23:56:22.037Z,74.67
2023-04-30T23:58:48.765Z,74.96
